Lyndon Station, Wisconsin
Current Conditions -  °F | °C
As of 12:15 PM on Tuesday 21 Oct 2014 (Local Time) from KC35 Reporting Station
Overcast Overcast  
Wind Chill: 46°   Ceiling: 2400
Heat Index: 46°   Visibility: 10mi
Dew Point: 37°   Wind: 3mph
Humidity: 70%   Direction: 80°E
Pressure: 30.25"   Gusts: NA
Location:  43.71°N, 89.9°W
Report Text: KC35 211715Z AUTO 08003KT 10SM OVC024 08/03 A3025 RMK AO2 T00770025
Loading
Personal Weather Stations






























Interactive Weather Map
Tropical Storm Tracking
New forecast layout! Learn more

10-Day Weather Forecast

Advertisements
Track Severe Weather on mobile